createdAt,value
2023-03-04T00:00:47.949Z,47.64
2023-03-04T00:03:16.673Z,47.89
2023-03-04T00:05:45.066Z,47.77
2023-03-04T00:08:13.227Z,48.17
2023-03-04T00:10:41.417Z,48.40
2023-03-04T00:13:09.970Z,48.32
2023-03-04T00:15:40.155Z,48.44
2023-03-04T00:18:08.501Z,48.09
2023-03-04T00:20:36.657Z,47.95
2023-03-04T00:23:04.921Z,48.44
2023-03-04T00:25:33.665Z,48.61
2023-03-04T00:28:02.036Z,48.79
2023-03-04T00:30:31.838Z,48.87
2023-03-04T00:33:01.685Z,48.71
2023-03-04T00:35:30.141Z,48.56
2023-03-04T00:37:58.480Z,48.59
2023-03-04T00:40:26.720Z,47.84
2023-03-04T00:42:55.049Z,48.99
2023-03-04T00:45:23.226Z,48.40
2023-03-04T00:47:51.490Z,48.79
2023-03-04T00:50:24.677Z,47.95
2023-03-04T00:52:52.913Z,47.90
2023-03-04T00:55:21.300Z,47.62
2023-03-04T00:57:49.605Z,47.35
2023-03-04T01:00:22.615Z,46.72
2023-03-04T01:02:50.992Z,47.75
2023-03-04T01:05:20.899Z,47.59
2023-03-04T01:07:49.250Z,48.12
2023-03-04T01:10:19.858Z,48.14
2023-03-04T01:12:48.151Z,47.39
2023-03-04T01:15:16.784Z,47.61
2023-03-04T01:17:46.069Z,46.82
2023-03-04T01:20:15.686Z,46.59
2023-03-04T01:22:45.454Z,46.29
2023-03-04T01:25:14.347Z,46.21
2023-03-04T01:27:42.598Z,46.47
2023-03-04T01:30:12.691Z,46.53
2023-03-04T01:32:41.082Z,46.04
2023-03-04T01:35:10.067Z,47.00
2023-03-04T01:37:38.401Z,47.19
2023-03-04T01:40:10.124Z,47.19
2023-03-04T01:42:38.859Z,46.44
2023-03-04T01:45:08.721Z,47.32
2023-03-04T01:47:37.142Z,48.00
2023-03-04T01:50:12.841Z,46.93
2023-03-04T01:52:43.032Z,47.59
2023-03-04T01:55:18.565Z,45.77
2023-03-04T01:57:47.981Z,44.46
2023-03-04T02:00:26.531Z,44.15
2023-03-04T02:02:56.455Z,43.56
2023-03-04T02:05:25.141Z,42.35
2023-03-04T02:07:54.549Z,41.86
2023-03-04T02:10:26.455Z,41.97
2023-03-04T02:12:55.054Z,42.03
2023-03-04T02:15:24.469Z,42.29
2023-03-04T02:17:52.730Z,43.33
2023-03-04T02:20:36.414Z,43.51
2023-03-04T02:23:13.119Z,44.55
2023-03-04T02:25:48.409Z,43.83
2023-03-04T02:28:18.299Z,43.94
2023-03-04T02:30:46.617Z,44.77
2023-03-04T02:33:21.251Z,44.57
2023-03-04T02:35:50.235Z,45.26
2023-03-04T02:38:18.704Z,45.22
2023-03-04T02:40:49.951Z,45.76
2023-03-04T02:43:19.982Z,45.80
2023-03-04T02:45:50.626Z,46.02
2023-03-04T02:48:21.768Z,44.41
2023-03-04T02:50:52.915Z,45.99
2023-03-04T02:53:21.939Z,44.71
2023-03-04T02:55:50.670Z,45.30
2023-03-04T02:58:20.381Z,45.00
2023-03-04T03:00:49.071Z,44.67
2023-03-04T03:03:17.333Z,45.95
2023-03-04T03:05:45.980Z,45.77
2023-03-04T03:08:14.447Z,44.97
2023-03-04T03:10:44.543Z,45.28
2023-03-04T03:13:12.713Z,45.31
2023-03-04T03:15:43.738Z,45.52
2023-03-04T03:18:12.122Z,45.94
2023-03-04T03:20:40.336Z,45.84
2023-03-04T03:23:09.246Z,46.05
2023-03-04T03:25:37.619Z,46.65
2023-03-04T03:28:06.257Z,46.41
2023-03-04T03:30:34.546Z,45.92
2023-03-04T03:33:04.757Z,45.21
2023-03-04T03:35:33.318Z,45.75
2023-03-04T03:38:01.624Z,45.88
2023-03-04T03:40:29.941Z,44.92
2023-03-04T03:42:58.300Z,44.59
2023-03-04T03:45:26.752Z,45.49
2023-03-04T03:47:55.078Z,44.91
2023-03-04T03:50:24.784Z,44.26
2023-03-04T03:52:53.050Z,44.06
2023-03-04T03:55:21.368Z,43.23
2023-03-04T03:57:49.686Z,42.89
2023-03-04T04:00:18.935Z,42.92
2023-03-04T04:02:47.307Z,43.56
2023-03-04T04:05:16.351Z,43.44
2023-03-04T04:07:46.197Z,43.55
2023-03-04T04:10:15.127Z,42.85
2023-03-04T04:12:44.699Z,43.68
2023-03-04T04:15:14.102Z,43.56
2023-03-04T04:17:42.400Z,44.37
2023-03-04T04:20:12.176Z,44.37
2023-03-04T04:22:40.400Z,44.92
2023-03-04T04:25:10.902Z,44.55
2023-03-04T04:27:39.203Z,44.49
2023-03-04T04:30:08.912Z,43.79
2023-03-04T04:32:37.398Z,43.74
2023-03-04T04:35:06.296Z,42.92
2023-03-04T04:37:34.561Z,42.77
2023-03-04T04:40:02.992Z,42.72
2023-03-04T04:42:33.682Z,42.99
2023-03-04T04:45:02.116Z,42.37
2023-03-04T04:47:30.372Z,43.27
2023-03-04T04:50:00.178Z,42.69
2023-03-04T04:52:28.587Z,43.22
2023-03-04T04:54:56.867Z,42.79
2023-03-04T04:57:25.256Z,43.49
2023-03-04T04:59:54.852Z,43.84
2023-03-04T05:02:23.132Z,43.98
2023-03-04T05:04:51.307Z,43.85
2023-03-04T05:07:19.728Z,44.19
2023-03-04T05:09:48.027Z,45.07
2023-03-04T05:12:16.654Z,44.79
2023-03-04T05:14:46.665Z,42.98
2023-03-04T05:17:16.484Z,43.15
2023-03-04T05:19:45.530Z,43.70
2023-03-04T05:22:14.062Z,43.58
2023-03-04T05:24:42.252Z,43.91
2023-03-04T05:27:10.541Z,44.06
2023-03-04T05:29:38.985Z,43.27
2023-03-04T05:32:07.300Z,43.80
2023-03-04T05:34:36.999Z,43.81
2023-03-04T05:37:05.602Z,42.77
2023-03-04T05:39:34.083Z,42.53
2023-03-04T05:42:02.391Z,42.65
2023-03-04T05:44:30.620Z,43.53
2023-03-04T05:46:58.940Z,42.78
2023-03-04T05:49:27.236Z,42.46
2023-03-04T05:51:57.040Z,42.67
2023-03-04T05:54:25.398Z,42.26
2023-03-04T05:56:54.839Z,42.09
2023-03-04T05:59:23.672Z,43.11
2023-03-04T06:01:52.356Z,43.08
2023-03-04T06:04:20.971Z,42.63
2023-03-04T06:06:49.588Z,42.27
2023-03-04T06:09:21.198Z,41.52
2023-03-04T06:11:50.102Z,42.10
2023-03-04T06:14:20.027Z,41.29
2023-03-04T06:16:49.600Z,40.96
2023-03-04T06:19:17.972Z,41.03
2023-03-04T06:21:46.883Z,41.05
2023-03-04T06:24:15.289Z,41.06
2023-03-04T06:26:45.204Z,39.52
2023-03-04T06:29:14.330Z,40.00
2023-03-04T06:31:43.127Z,40.57
2023-03-04T06:34:11.673Z,40.65
2023-03-04T06:36:40.425Z,40.09
2023-03-04T06:39:09.705Z,39.34
2023-03-04T06:41:40.146Z,40.40
2023-03-04T06:44:09.829Z,40.89
2023-03-04T06:46:38.318Z,40.41
2023-03-04T06:49:06.576Z,40.07
2023-03-04T06:51:34.798Z,40.06
2023-03-04T06:54:03.087Z,40.13
2023-03-04T06:56:31.402Z,41.01
2023-03-04T06:58:59.748Z,40.34
2023-03-04T07:01:30.461Z,40.67
2023-03-04T07:03:59.138Z,40.72
2023-03-04T07:06:29.380Z,40.52
2023-03-04T07:08:58.424Z,41.11
2023-03-04T07:11:27.496Z,41.31
2023-03-04T07:13:57.139Z,41.49
2023-03-04T07:16:26.016Z,40.95
2023-03-04T07:18:55.741Z,40.64
2023-03-04T07:21:24.283Z,41.10
2023-03-04T07:23:52.893Z,41.28
2023-03-04T07:26:23.731Z,40.27
2023-03-04T07:28:54.600Z,40.06
2023-03-04T07:31:27.931Z,40.32
2023-03-04T07:33:59.128Z,40.33
2023-03-04T07:36:27.911Z,40.48
2023-03-04T07:38:56.826Z,40.79
2023-03-04T07:41:27.712Z,40.35
2023-03-04T07:43:57.873Z,40.73
2023-03-04T07:46:26.837Z,40.46
2023-03-04T07:48:58.243Z,40.61
2023-03-04T07:51:28.471Z,40.90
2023-03-04T07:53:59.888Z,40.33
2023-03-04T07:56:29.677Z,40.17
2023-03-04T07:58:58.361Z,40.57
2023-03-04T08:01:33.528Z,40.71
2023-03-04T08:04:03.757Z,39.92
2023-03-04T08:06:32.607Z,40.88
2023-03-04T08:09:02.365Z,40.02
2023-03-04T08:11:33.868Z,40.47
2023-03-04T08:14:05.298Z,41.13
2023-03-04T08:16:34.279Z,39.71
2023-03-04T08:19:05.246Z,39.77
2023-03-04T08:21:34.354Z,39.49
2023-03-04T08:24:08.734Z,40.21
2023-03-04T08:26:41.452Z,40.68
2023-03-04T08:29:11.171Z,40.12
2023-03-04T08:31:39.614Z,41.25
2023-03-04T08:34:10.670Z,40.98
2023-03-04T08:36:38.907Z,40.39
2023-03-04T08:39:07.477Z,40.12
2023-03-04T08:41:39.151Z,40.69
2023-03-04T08:44:08.446Z,41.42
2023-03-04T08:46:37.034Z,40.14
2023-03-04T08:49:05.519Z,39.99
2023-03-04T08:51:36.188Z,39.82
2023-03-04T08:54:04.479Z,39.74
2023-03-04T08:56:32.788Z,40.54
2023-03-04T08:59:04.281Z,40.70
2023-03-04T09:01:32.539Z,39.86
2023-03-04T09:04:00.763Z,39.51
2023-03-04T09:06:29.041Z,39.53
2023-03-04T09:08:58.861Z,39.84
2023-03-04T09:11:27.657Z,40.24
2023-03-04T09:13:57.796Z,39.86
2023-03-04T09:16:26.074Z,39.51
2023-03-04T09:18:54.307Z,39.86
2023-03-04T09:21:22.541Z,39.64
2023-03-04T09:23:51.041Z,39.99
2023-03-04T09:26:23.418Z,40.09
2023-03-04T09:28:52.979Z,39.91
2023-03-04T09:31:22.088Z,39.91
2023-03-04T09:33:51.075Z,39.52
2023-03-04T09:36:19.541Z,39.90
2023-03-04T09:38:47.846Z,39.53
2023-03-04T09:41:20.025Z,40.13
2023-03-04T09:43:50.882Z,38.65
2023-03-04T09:46:28.256Z,39.43
2023-03-04T09:48:57.698Z,39.03
2023-03-04T09:51:42.469Z,39.10
2023-03-04T09:54:16.484Z,39.31
2023-03-04T09:56:44.819Z,39.72
2023-03-04T09:59:31.398Z,40.57
2023-03-04T10:02:02.519Z,38.90
2023-03-04T10:04:38.277Z,40.00
2023-03-04T10:07:10.973Z,39.47
2023-03-04T10:09:47.280Z,39.12
2023-03-04T10:12:21.547Z,39.92
2023-03-04T10:14:57.354Z,39.10
2023-03-04T10:17:33.897Z,39.65
2023-03-04T10:20:06.412Z,39.29
2023-03-04T10:22:38.079Z,38.93
2023-03-04T10:25:25.459Z,39.66
2023-03-04T10:27:56.856Z,39.70
2023-03-04T10:30:41.900Z,38.99
2023-03-04T10:33:21.766Z,39.59
2023-03-04T10:35:54.666Z,39.88
2023-03-04T10:38:24.557Z,39.83
2023-03-04T10:40:52.970Z,40.30
2023-03-04T10:43:22.855Z,39.35
2023-03-04T10:45:58.110Z,40.12
2023-03-04T10:48:28.505Z,39.74
2023-03-04T10:51:13.848Z,39.94
2023-03-04T10:53:44.469Z,39.41
2023-03-04T10:56:32.658Z,39.48
2023-03-04T10:59:31.975Z,39.30
2023-03-04T11:02:03.411Z,39.08
2023-03-04T11:04:36.098Z,39.18
2023-03-04T11:07:11.062Z,39.94
2023-03-04T11:09:41.116Z,39.85
2023-03-04T11:12:13.772Z,38.79
2023-03-04T11:14:46.374Z,38.36
2023-03-04T11:17:23.602Z,38.46
2023-03-04T11:19:57.402Z,38.75
2023-03-04T11:22:28.962Z,39.18
2023-03-04T11:25:01.141Z,39.53
2023-03-04T11:27:39.869Z,38.93
2023-03-04T11:30:25.073Z,37.86
2023-03-04T11:33:00.013Z,38.95
2023-03-04T11:35:38.312Z,39.09
2023-03-04T11:38:16.477Z,38.65
2023-03-04T11:40:47.004Z,38.05
2023-03-04T11:43:19.182Z,39.37
2023-03-04T11:46:13.382Z,38.87
2023-03-04T11:48:53.245Z,38.78
2023-03-04T11:51:30.028Z,38.01
2023-03-04T11:54:13.394Z,38.46
2023-03-04T11:56:45.380Z,38.80
2023-03-04T11:59:33.018Z,38.59
2023-03-04T12:02:14.420Z,38.91
2023-03-04T12:05:15.398Z,38.32
2023-03-04T12:08:18.417Z,38.27
2023-03-04T12:10:57.294Z,37.95
2023-03-04T12:13:48.263Z,38.74
2023-03-04T12:16:27.344Z,38.26
2023-03-04T12:19:10.725Z,39.07
2023-03-04T12:22:06.492Z,38.10
2023-03-04T12:24:51.773Z,38.60
2023-03-04T12:27:29.372Z,39.24
2023-03-04T12:30:05.691Z,38.53
2023-03-04T12:32:44.217Z,37.81
2023-03-04T12:35:36.747Z,37.93
2023-03-04T12:38:41.222Z,38.59
2023-03-04T12:41:27.025Z,39.20
2023-03-04T12:44:05.941Z,39.34
2023-03-04T12:46:46.480Z,39.59
2023-03-04T12:49:30.453Z,39.40
2023-03-04T12:52:09.856Z,39.30
2023-03-04T12:54:42.474Z,39.22
2023-03-04T12:57:15.403Z,39.19
2023-03-04T12:59:51.977Z,39.09
2023-03-04T13:02:35.147Z,38.89
2023-03-04T13:05:17.832Z,38.91
2023-03-04T13:07:56.792Z,38.74
2023-03-04T13:10:25.888Z,39.68
2023-03-04T13:12:56.938Z,39.54
2023-03-04T13:15:35.864Z,39.56
2023-03-04T13:18:29.243Z,39.79
2023-03-04T13:21:09.443Z,38.57
2023-03-04T13:23:37.710Z,39.09
2023-03-04T13:26:21.646Z,38.87
2023-03-04T13:29:10.204Z,38.07
2023-03-04T13:31:59.859Z,38.57
2023-03-04T13:34:54.697Z,38.11
2023-03-04T13:37:35.179Z,39.08
2023-03-04T13:40:32.529Z,38.33
2023-03-04T13:43:29.430Z,38.43
2023-03-04T13:45:59.525Z,38.28
2023-03-04T13:48:36.728Z,39.09
2023-03-04T13:51:05.472Z,38.39
2023-03-04T13:53:50.027Z,38.68
2023-03-04T13:56:31.623Z,38.87
2023-03-04T13:59:19.912Z,38.24
2023-03-04T14:01:57.578Z,38.60
2023-03-04T14:04:31.311Z,38.65
2023-03-04T14:07:01.998Z,39.40
2023-03-04T14:09:32.210Z,39.03
2023-03-04T14:12:05.420Z,39.30
2023-03-04T14:14:48.849Z,38.31
2023-03-04T14:17:22.352Z,38.13
2023-03-04T14:19:53.834Z,38.37
2023-03-04T14:22:25.684Z,38.26
2023-03-04T14:25:03.532Z,38.40
2023-03-04T14:27:35.449Z,38.91
2023-03-04T14:30:07.051Z,38.74
2023-03-04T14:32:37.020Z,38.47
2023-03-04T14:35:09.379Z,38.31
2023-03-04T14:37:45.019Z,38.54
2023-03-04T14:40:24.231Z,38.75
2023-03-04T14:42:57.495Z,38.28
2023-03-04T14:45:27.057Z,38.62
2023-03-04T14:48:01.838Z,39.09
2023-03-04T14:50:30.190Z,38.45
2023-03-04T14:53:16.725Z,39.11
2023-03-04T14:55:58.241Z,38.35
2023-03-04T14:58:28.322Z,38.14
2023-03-04T15:01:08.610Z,38.57
2023-03-04T15:03:38.860Z,38.75
2023-03-04T15:06:19.348Z,38.27
2023-03-04T15:08:48.599Z,39.34
2023-03-04T15:11:26.605Z,38.28
2023-03-04T15:13:57.488Z,39.03
2023-03-04T15:16:28.914Z,38.25
2023-03-04T15:19:06.005Z,38.88
2023-03-04T15:21:40.315Z,38.87
2023-03-04T15:24:11.804Z,38.82
2023-03-04T15:26:42.248Z,38.70
2023-03-04T15:29:16.123Z,39.62
2023-03-04T15:31:45.173Z,39.42
2023-03-04T15:34:16.696Z,39.65
2023-03-04T15:36:47.213Z,39.25
2023-03-04T15:39:17.566Z,39.54
2023-03-04T15:41:48.544Z,38.85
2023-03-04T15:44:17.174Z,39.59
2023-03-04T15:46:47.115Z,39.59
2023-03-04T15:49:16.957Z,39.92
2023-03-04T15:51:45.522Z,39.92
2023-03-04T15:54:15.214Z,39.75
2023-03-04T15:56:44.171Z,39.76
2023-03-04T15:59:14.965Z,40.15
2023-03-04T16:01:43.550Z,40.51
2023-03-04T16:04:17.516Z,41.48
2023-03-04T16:06:47.069Z,40.72
2023-03-04T16:09:19.814Z,41.52
2023-03-04T16:11:50.109Z,41.20
2023-03-04T16:14:18.901Z,41.39
2023-03-04T16:16:48.135Z,41.77
2023-03-04T16:19:17.881Z,41.57
2023-03-04T16:21:46.449Z,41.53
2023-03-04T16:24:19.119Z,40.93
2023-03-04T16:26:48.056Z,41.21
2023-03-04T16:29:17.333Z,40.16
2023-03-04T16:31:45.815Z,40.33
2023-03-04T16:34:15.023Z,40.48
2023-03-04T16:36:44.891Z,41.14
2023-03-04T16:39:20.590Z,41.65
2023-03-04T16:41:51.464Z,40.47
2023-03-04T16:44:20.108Z,41.28
2023-03-04T16:46:48.382Z,40.83
2023-03-04T16:49:16.712Z,40.26
2023-03-04T16:51:48.517Z,40.87
2023-03-04T16:54:19.927Z,41.02
2023-03-04T16:56:48.113Z,41.85
2023-03-04T16:59:17.932Z,41.40
2023-03-04T17:01:46.596Z,42.74
2023-03-04T17:04:15.248Z,42.37
2023-03-04T17:06:43.630Z,41.95
2023-03-04T17:09:14.736Z,43.06
2023-03-04T17:11:44.755Z,42.99
2023-03-04T17:14:13.486Z,42.44
2023-03-04T17:16:41.904Z,42.91
2023-03-04T17:19:10.507Z,42.44
2023-03-04T17:21:38.818Z,42.86
2023-03-04T17:24:11.083Z,42.85
2023-03-04T17:26:42.755Z,42.90
2023-03-04T17:29:14.710Z,42.66
2023-03-04T17:31:42.979Z,42.81
2023-03-04T17:34:11.683Z,42.62
2023-03-04T17:36:39.855Z,42.94
2023-03-04T17:39:08.917Z,43.25
2023-03-04T17:41:38.115Z,43.23
2023-03-04T17:44:07.753Z,43.75
2023-03-04T17:46:36.517Z,44.06
2023-03-04T17:49:04.802Z,44.06
2023-03-04T17:51:35.581Z,44.08
2023-03-04T17:54:05.698Z,44.20
2023-03-04T17:56:34.667Z,44.74
2023-03-04T17:59:05.914Z,44.36
2023-03-04T18:01:35.673Z,44.02
2023-03-04T18:04:04.689Z,44.78
2023-03-04T18:06:33.069Z,44.96
2023-03-04T18:09:01.838Z,45.45
2023-03-04T18:11:33.164Z,44.36
2023-03-04T18:14:01.571Z,44.94
2023-03-04T18:16:30.932Z,44.88
2023-03-04T18:19:02.038Z,45.58
2023-03-04T18:21:31.356Z,45.04
2023-03-04T18:23:59.905Z,45.78
2023-03-04T18:26:29.736Z,45.72
2023-03-04T18:28:58.143Z,46.35
2023-03-04T18:31:44.679Z,45.88
2023-03-04T18:34:14.500Z,46.08
2023-03-04T18:36:42.708Z,46.09
2023-03-04T18:39:10.883Z,45.89
2023-03-04T18:41:39.106Z,46.28
2023-03-04T18:44:09.856Z,46.51
2023-03-04T18:46:49.960Z,46.94
2023-03-04T18:49:21.350Z,46.95
2023-03-04T18:51:49.630Z,46.61
2023-03-04T18:54:18.471Z,47.03
2023-03-04T18:56:50.129Z,47.74
2023-03-04T18:59:23.079Z,47.23
2023-03-04T19:01:53.804Z,47.58
2023-03-04T19:04:27.784Z,48.08
2023-03-04T19:06:56.404Z,48.01
2023-03-04T19:09:24.829Z,48.67
2023-03-04T19:11:53.276Z,48.04
2023-03-04T19:14:21.644Z,48.77
2023-03-04T19:17:07.641Z,48.86
2023-03-04T19:19:37.653Z,48.46
2023-03-04T19:22:07.052Z,49.14
2023-03-04T19:24:35.700Z,48.96
2023-03-04T19:27:05.511Z,48.71
2023-03-04T19:29:33.867Z,49.33
2023-03-04T19:32:02.265Z,48.50
2023-03-04T19:34:31.818Z,49.18
2023-03-04T19:37:03.130Z,49.60
2023-03-04T19:39:31.450Z,49.86
2023-03-04T19:41:59.730Z,49.89
2023-03-04T19:44:28.008Z,49.99
2023-03-04T19:46:56.385Z,50.33
2023-03-04T19:49:24.611Z,50.62
2023-03-04T19:51:53.453Z,50.34
2023-03-04T19:54:23.318Z,50.41
2023-03-04T19:56:55.170Z,50.55
2023-03-04T19:59:23.765Z,50.57
2023-03-04T20:01:52.206Z,51.07
2023-03-04T20:04:23.783Z,51.67
2023-03-04T20:06:52.845Z,51.86
2023-03-04T20:09:22.841Z,51.56
2023-03-04T20:11:58.378Z,51.77
2023-03-04T20:14:27.740Z,51.68
2023-03-04T20:17:00.885Z,52.15
2023-03-04T20:19:29.449Z,52.23
2023-03-04T20:21:57.924Z,52.55
2023-03-04T20:24:28.077Z,52.45
2023-03-04T20:26:56.820Z,52.67
2023-03-04T20:29:26.931Z,53.20
2023-03-04T20:31:55.418Z,53.15
2023-03-04T20:34:27.153Z,53.12
2023-03-04T20:36:55.456Z,53.31
2023-03-04T20:39:29.495Z,53.79
2023-03-04T20:42:00.095Z,53.98
2023-03-04T20:44:28.869Z,54.01
2023-03-04T20:46:57.494Z,54.27
2023-03-04T20:49:27.828Z,53.66
2023-03-04T20:52:00.379Z,53.92
2023-03-04T20:54:28.726Z,53.48
2023-03-04T20:56:57.034Z,53.73
2023-03-04T20:59:27.685Z,53.41
2023-03-04T21:01:56.626Z,53.57
2023-03-04T21:04:25.149Z,53.36
2023-03-04T21:06:54.146Z,53.16
2023-03-04T21:09:23.521Z,53.00
2023-03-04T21:11:53.997Z,52.61
2023-03-04T21:14:24.363Z,53.13
2023-03-04T21:16:56.786Z,52.85
2023-03-04T21:19:27.498Z,52.38
2023-03-04T21:21:58.113Z,53.00
2023-03-04T21:24:31.405Z,52.90
2023-03-04T21:27:01.631Z,52.69
2023-03-04T21:29:29.862Z,52.71
2023-03-04T21:32:16.851Z,53.03
2023-03-04T21:34:52.387Z,52.89
2023-03-04T21:37:20.971Z,52.66
2023-03-04T21:39:49.773Z,53.09
2023-03-04T21:42:18.721Z,53.17
2023-03-04T21:44:51.482Z,53.26
2023-03-04T21:47:22.917Z,53.04
2023-03-04T21:49:52.106Z,53.06
2023-03-04T21:52:21.569Z,53.19
2023-03-04T21:54:50.218Z,53.05
2023-03-04T21:57:19.173Z,53.35
2023-03-04T21:59:47.472Z,53.63
2023-03-04T22:02:17.082Z,53.63
2023-03-04T22:04:47.026Z,53.30
2023-03-04T22:07:16.065Z,53.89
2023-03-04T22:09:44.337Z,53.91
2023-03-04T22:12:14.358Z,53.91
2023-03-04T22:14:44.220Z,53.67
2023-03-04T22:17:12.753Z,53.84
2023-03-04T22:19:41.070Z,53.52
2023-03-04T22:22:14.194Z,53.58
2023-03-04T22:24:42.453Z,53.62
2023-03-04T22:27:10.732Z,53.12
2023-03-04T22:29:39.087Z,53.31
2023-03-04T22:32:07.903Z,52.84
2023-03-04T22:34:36.250Z,52.86
2023-03-04T22:37:04.649Z,52.38
2023-03-04T22:39:34.672Z,51.74
2023-03-04T22:42:03.145Z,51.58
2023-03-04T22:44:31.565Z,51.57
2023-03-04T22:46:59.891Z,51.59
2023-03-04T22:49:28.265Z,50.80
2023-03-04T22:51:56.693Z,50.64
2023-03-04T22:54:24.978Z,50.19
2023-03-04T22:56:55.045Z,50.05
2023-03-04T22:59:23.413Z,49.97
2023-03-04T23:01:53.270Z,50.14
2023-03-04T23:04:21.898Z,49.92
2023-03-04T23:06:50.338Z,49.82
2023-03-04T23:09:18.666Z,49.56
2023-03-04T23:11:47.140Z,50.00
2023-03-04T23:14:16.781Z,49.79
2023-03-04T23:16:45.514Z,49.59
2023-03-04T23:19:15.484Z,49.79
2023-03-04T23:21:44.641Z,50.00
2023-03-04T23:24:14.751Z,50.18
2023-03-04T23:26:44.262Z,50.71
2023-03-04T23:29:17.217Z,50.83
2023-03-04T23:31:46.079Z,51.18
2023-03-04T23:34:15.325Z,51.46
2023-03-04T23:36:43.662Z,51.70
2023-03-04T23:39:14.197Z,51.86
2023-03-04T23:41:42.868Z,52.44
2023-03-04T23:44:12.470Z,52.88
2023-03-04T23:46:42.300Z,53.26
2023-03-04T23:49:14.504Z,52.52
2023-03-04T23:51:44.420Z,53.29
2023-03-04T23:54:13.109Z,53.24
2023-03-04T23:56:41.448Z,53.26
2023-03-04T23:59:09.831Z,53.56
